createdAt,value
2019-01-20T00:00:49.661Z,28.03
2019-01-20T00:03:18.477Z,24.60
2019-01-20T00:05:47.426Z,27.43
2019-01-20T00:08:16.321Z,30.40
2019-01-20T00:10:45.151Z,28.87
2019-01-20T00:13:13.978Z,27.57
2019-01-20T00:15:44.076Z,30.33
2019-01-20T00:18:12.934Z,30.30
2019-01-20T00:20:41.834Z,31.33
2019-01-20T00:23:10.815Z,27.87
2019-01-20T00:25:39.700Z,27.83
2019-01-20T00:28:08.658Z,31.73
2019-01-20T00:30:37.562Z,28.27
2019-01-20T00:33:08.031Z,30.47
2019-01-20T00:35:36.834Z,33.07
2019-01-20T00:38:05.734Z,29.30
2019-01-20T00:40:34.539Z,30.50
2019-01-20T00:43:03.358Z,27.30
2019-01-20T00:45:32.218Z,26.30
2019-01-20T00:48:01.056Z,32.20
2019-01-20T00:50:29.854Z,29.00
2019-01-20T00:52:58.747Z,27.17
2019-01-20T00:55:27.606Z,30.10
2019-01-20T00:57:56.760Z,25.90
2019-01-20T01:00:28.334Z,26.03
2019-01-20T01:02:57.219Z,23.83
2019-01-20T01:05:26.279Z,28.37
2019-01-20T01:07:55.327Z,30.43
2019-01-20T01:10:24.322Z,29.13
2019-01-20T01:12:53.226Z,27.87
2019-01-20T01:15:22.188Z,34.87
2019-01-20T01:17:51.155Z,26.97
2019-01-20T01:20:20.490Z,28.87
2019-01-20T01:22:49.663Z,30.97
2019-01-20T01:25:18.718Z,28.13
2019-01-20T01:27:47.767Z,26.90
2019-01-20T01:30:21.938Z,25.03
2019-01-20T01:33:10.092Z,25.23
2019-01-20T01:35:38.899Z,24.73
2019-01-20T01:38:07.858Z,24.93
2019-01-20T01:40:36.690Z,31.67
2019-01-20T01:43:05.649Z,26.33
2019-01-20T01:45:34.566Z,29.47
2019-01-20T01:48:03.570Z,25.97
2019-01-20T01:50:32.390Z,28.00
2019-01-20T01:53:01.270Z,25.23
2019-01-20T01:55:30.179Z,27.30
2019-01-20T01:57:58.992Z,28.77
2019-01-20T02:00:27.901Z,29.60
2019-01-20T02:02:56.770Z,30.17
2019-01-20T02:05:25.738Z,33.50
2019-01-20T02:07:54.608Z,29.73
2019-01-20T02:10:23.579Z,27.60
2019-01-20T02:12:52.955Z,27.97
2019-01-20T02:15:22.645Z,27.03
2019-01-20T02:17:51.621Z,26.63
2019-01-20T02:20:22.757Z,24.63
2019-01-20T02:22:51.780Z,27.90
2019-01-20T02:25:20.750Z,24.77
2019-01-20T02:27:51.338Z,27.80
2019-01-20T02:30:22.529Z,22.37
2019-01-20T02:32:51.463Z,25.93
2019-01-20T02:35:20.404Z,26.23
2019-01-20T02:37:49.219Z,26.37
2019-01-20T02:40:18.605Z,31.63
2019-01-20T02:42:47.470Z,26.23
2019-01-20T02:45:19.845Z,28.07
2019-01-20T02:47:48.705Z,25.03
2019-01-20T02:50:18.708Z,25.53
2019-01-20T02:52:47.630Z,24.83
2019-01-20T02:55:19.343Z,26.50
2019-01-20T02:57:48.255Z,27.67
2019-01-20T03:00:19.733Z,31.90
2019-01-20T03:02:49.188Z,26.77
2019-01-20T03:05:18.626Z,31.17
2019-01-20T03:07:47.603Z,25.80
2019-01-20T03:10:16.493Z,25.07
2019-01-20T03:12:45.487Z,25.73
2019-01-20T03:15:15.075Z,30.60
2019-01-20T03:17:44.170Z,26.73
2019-01-20T03:20:15.644Z,32.13
2019-01-20T03:22:44.740Z,31.30
2019-01-20T03:25:15.171Z,31.10
2019-01-20T03:27:44.213Z,29.93
2019-01-20T03:30:15.436Z,27.17
2019-01-20T03:32:44.323Z,27.73
2019-01-20T03:35:14.248Z,26.30
2019-01-20T03:37:43.212Z,31.77
2019-01-20T03:40:14.050Z,29.23
2019-01-20T03:42:43.024Z,30.17
2019-01-20T03:45:14.216Z,27.37
2019-01-20T03:47:43.162Z,29.37
2019-01-20T03:50:13.081Z,28.13
2019-01-20T03:52:41.996Z,24.87
2019-01-20T03:55:12.714Z,31.37
2019-01-20T03:57:41.538Z,29.07
2019-01-20T04:00:14.131Z,31.90
2019-01-20T04:02:43.978Z,32.10
2019-01-20T04:05:13.050Z,33.90
2019-01-20T04:07:41.937Z,30.47
2019-01-20T04:10:12.626Z,30.13
2019-01-20T04:12:41.584Z,30.93
2019-01-20T04:15:11.168Z,32.27
2019-01-20T04:17:40.069Z,31.73
2019-01-20T04:20:09.644Z,30.97
2019-01-20T04:22:38.730Z,30.17
2019-01-20T04:25:09.484Z,28.87
2019-01-20T04:27:38.387Z,31.10
2019-01-20T04:30:08.799Z,29.73
2019-01-20T04:32:37.689Z,35.90
2019-01-20T04:35:07.502Z,33.33
2019-01-20T04:37:36.480Z,32.80
2019-01-20T04:40:07.851Z,29.10
2019-01-20T04:42:36.881Z,36.70
2019-01-20T04:45:07.362Z,28.87
2019-01-20T04:47:36.291Z,31.23
2019-01-20T04:50:07.079Z,34.87
2019-01-20T04:52:36.002Z,31.40
2019-01-20T04:55:05.998Z,35.60
2019-01-20T04:57:35.229Z,37.03
2019-01-20T05:00:05.783Z,36.17
2019-01-20T05:02:34.690Z,36.43
2019-01-20T05:05:04.190Z,38.57
2019-01-20T05:07:33.029Z,35.27
2019-01-20T05:10:01.873Z,36.73
2019-01-20T05:12:37.517Z,40.30
2019-01-20T05:15:01.309Z,44.83
2019-01-20T05:17:30.192Z,40.50
2019-01-20T05:19:59.019Z,39.70
2019-01-20T05:22:28.101Z,40.40
2019-01-20T05:24:56.986Z,42.13
2019-01-20T05:27:25.815Z,37.67
2019-01-20T05:29:55.014Z,36.63
2019-01-20T05:32:23.858Z,39.50
2019-01-20T05:34:52.739Z,42.03
2019-01-20T05:37:21.646Z,41.40
2019-01-20T05:39:50.483Z,39.93
2019-01-20T05:42:19.310Z,39.20
2019-01-20T05:44:48.122Z,37.30
2019-01-20T05:47:16.998Z,33.73
2019-01-20T05:49:45.851Z,34.43
2019-01-20T05:52:14.727Z,37.87
2019-01-20T05:54:43.635Z,45.47
2019-01-20T05:57:12.442Z,38.63
2019-01-20T05:59:41.258Z,38.97
2019-01-20T06:02:10.217Z,38.37
2019-01-20T06:04:39.116Z,39.03
2019-01-20T06:07:07.925Z,43.37
2019-01-20T06:09:36.864Z,38.43
2019-01-20T06:12:05.661Z,43.17
2019-01-20T06:14:34.496Z,39.37
2019-01-20T06:17:03.390Z,41.93
2019-01-20T06:19:32.211Z,40.20
2019-01-20T06:22:01.044Z,36.37
2019-01-20T06:24:29.887Z,37.73
2019-01-20T06:26:58.697Z,38.27
2019-01-20T06:29:27.580Z,36.13
2019-01-20T06:31:56.420Z,39.30
2019-01-20T06:34:25.538Z,44.97
2019-01-20T06:36:54.449Z,36.73
2019-01-20T06:39:23.314Z,41.80
2019-01-20T06:41:52.133Z,43.97
2019-01-20T06:44:20.978Z,38.10
2019-01-20T06:46:49.870Z,34.40
2019-01-20T06:49:18.709Z,35.20
2019-01-20T06:51:47.526Z,38.47
2019-01-20T06:54:16.358Z,36.33
2019-01-20T06:56:45.247Z,37.83
2019-01-20T06:59:14.121Z,37.20
2019-01-20T07:01:43.075Z,36.77
2019-01-20T07:04:11.994Z,34.00
2019-01-20T07:06:40.889Z,35.33
2019-01-20T07:09:09.866Z,34.23
2019-01-20T07:11:38.781Z,38.00
2019-01-20T07:14:07.763Z,34.13
2019-01-20T07:16:36.588Z,35.23
2019-01-20T07:19:05.590Z,39.87
2019-01-20T07:21:34.527Z,35.70
2019-01-20T07:24:03.445Z,36.23
2019-01-20T07:26:32.258Z,34.30
2019-01-20T07:29:01.163Z,33.53
2019-01-20T07:31:30.079Z,34.67
2019-01-20T07:33:58.940Z,34.57
2019-01-20T07:36:27.933Z,37.60
2019-01-20T07:38:56.892Z,37.27
2019-01-20T07:41:25.822Z,39.67
2019-01-20T07:43:54.723Z,38.20
2019-01-20T07:46:23.639Z,36.13
2019-01-20T07:48:52.463Z,36.80
2019-01-20T07:51:21.376Z,35.77
2019-01-20T07:53:50.198Z,34.60
2019-01-20T07:56:19.297Z,37.70
2019-01-20T07:58:48.191Z,36.13
2019-01-20T08:01:17.201Z,37.73
2019-01-20T08:03:46.036Z,36.07
2019-01-20T08:06:15.003Z,37.77
2019-01-20T08:08:43.931Z,38.63
2019-01-20T08:11:12.899Z,39.70
2019-01-20T08:13:41.892Z,38.27
2019-01-20T08:16:10.828Z,37.53
2019-01-20T08:18:39.643Z,33.63
2019-01-20T08:21:08.717Z,38.57
2019-01-20T08:23:37.661Z,35.83
2019-01-20T08:26:06.678Z,33.20
2019-01-20T08:28:35.596Z,31.57
2019-01-20T08:31:04.870Z,29.80
2019-01-20T08:33:33.762Z,31.90
2019-01-20T08:36:02.615Z,34.43
2019-01-20T08:38:31.478Z,36.49
2019-01-20T08:41:32.635Z,35.07
2019-01-20T08:44:01.599Z,30.77
2019-01-20T08:46:35.676Z,30.00
2019-01-20T08:49:05.438Z,27.80
2019-01-20T08:51:35.501Z,30.07
2019-01-20T08:54:04.546Z,26.13
2019-01-20T08:56:33.450Z,25.77
2019-01-20T08:59:02.275Z,25.93
2019-01-20T09:01:31.171Z,24.73
2019-01-20T09:04:00.249Z,24.40
2019-01-20T09:06:29.234Z,24.87
2019-01-20T09:08:58.171Z,21.53
2019-01-20T09:11:27.143Z,24.07
2019-01-20T09:13:56.087Z,23.20
2019-01-20T09:16:25.038Z,22.60
2019-01-20T09:18:53.977Z,22.10
2019-01-20T09:21:22.891Z,21.60
2019-01-20T09:23:51.910Z,21.87
2019-01-20T09:26:20.892Z,19.37
2019-01-20T09:28:49.881Z,19.73
2019-01-20T09:31:18.875Z,19.50
2019-01-20T09:33:47.683Z,22.83
2019-01-20T09:36:16.496Z,20.00
2019-01-20T09:38:45.337Z,21.77
2019-01-20T09:41:14.180Z,21.90
2019-01-20T09:43:47.078Z,24.37
2019-01-20T09:46:14.147Z,22.87
2019-01-20T09:48:43.031Z,22.03
2019-01-20T09:51:11.958Z,22.33
2019-01-20T09:53:40.852Z,79.23
2019-01-20T09:56:09.745Z,41.47
2019-01-20T09:58:38.655Z,51.13
2019-01-20T10:01:07.538Z,37.83
2019-01-20T10:03:36.475Z,24.33
2019-01-20T10:06:05.682Z,28.20
2019-01-20T10:08:34.673Z,23.07
2019-01-20T10:11:03.481Z,22.47
2019-01-20T10:13:32.413Z,25.73
2019-01-20T10:16:01.432Z,23.63
2019-01-20T10:18:30.274Z,23.47
2019-01-20T10:20:59.169Z,24.60
2019-01-20T10:23:27.998Z,23.40
2019-01-20T10:25:56.887Z,23.30
2019-01-20T10:28:26.882Z,24.70
2019-01-20T10:30:55.827Z,22.73
2019-01-20T10:33:24.655Z,24.03
2019-01-20T10:35:58.429Z,23.20
2019-01-20T10:38:27.287Z,25.17
2019-01-20T10:40:56.097Z,23.30
2019-01-20T10:43:24.934Z,26.07
2019-01-20T10:45:53.750Z,25.77
2019-01-20T10:48:22.674Z,28.57
2019-01-20T10:50:51.630Z,28.57
2019-01-20T10:53:20.614Z,30.13
2019-01-20T10:55:49.502Z,27.97
2019-01-20T10:58:18.346Z,28.30
2019-01-20T11:00:47.298Z,27.50
2019-01-20T11:03:16.143Z,32.03
2019-01-20T11:05:45.019Z,30.03
2019-01-20T11:08:13.858Z,28.53
2019-01-20T11:10:42.653Z,33.70
2019-01-20T11:13:11.539Z,31.23
2019-01-20T11:15:40.511Z,33.70
2019-01-20T11:18:09.517Z,32.70
2019-01-20T11:20:38.463Z,36.40
2019-01-20T11:23:07.646Z,38.17
2019-01-20T11:25:43.704Z,33.50
2019-01-20T11:28:12.647Z,34.90
2019-01-20T11:30:41.635Z,35.77
2019-01-20T11:33:10.618Z,35.27
2019-01-20T11:35:39.568Z,33.57
2019-01-20T11:38:08.548Z,34.40
2019-01-20T11:40:37.754Z,33.80
2019-01-20T11:43:06.737Z,37.20
2019-01-20T11:45:35.751Z,35.87
2019-01-20T11:48:05.312Z,35.43
2019-01-20T11:50:34.287Z,34.23
2019-01-20T11:53:03.239Z,34.93
2019-01-20T11:55:32.238Z,34.30
2019-01-20T11:58:01.117Z,38.57
2019-01-20T12:00:32.733Z,34.57
2019-01-20T12:03:01.759Z,37.63
2019-01-20T12:05:31.947Z,36.70
2019-01-20T12:08:01.902Z,36.07
2019-01-20T12:10:33.028Z,33.90
2019-01-20T12:13:22.939Z,36.03
2019-01-20T12:15:51.870Z,37.93
2019-01-20T12:18:22.830Z,36.67
2019-01-20T12:20:51.868Z,36.07
2019-01-20T12:23:21.767Z,35.00
2019-01-20T12:25:51.710Z,39.37
2019-01-20T12:28:21.761Z,33.07
2019-01-20T12:30:50.753Z,36.40
2019-01-20T12:33:19.663Z,34.53
2019-01-20T12:35:48.598Z,36.80
2019-01-20T12:38:17.487Z,34.43
2019-01-20T12:40:48.040Z,36.97
2019-01-20T12:43:16.871Z,34.90
2019-01-20T12:45:45.752Z,36.37
2019-01-20T12:48:14.623Z,35.73
2019-01-20T12:50:43.610Z,34.63
2019-01-20T12:53:12.534Z,34.50
2019-01-20T12:55:41.556Z,34.13
2019-01-20T12:58:10.634Z,36.40
2019-01-20T13:00:39.602Z,33.10
2019-01-20T13:03:08.525Z,37.07
2019-01-20T13:05:37.542Z,36.23
2019-01-20T13:08:06.449Z,38.93
2019-01-20T13:10:35.424Z,37.40
2019-01-20T13:13:04.503Z,37.13
2019-01-20T13:15:33.449Z,39.10
2019-01-20T13:18:02.351Z,37.50
2019-01-20T13:20:31.159Z,37.40
2019-01-20T13:23:00.150Z,34.90
2019-01-20T13:25:30.580Z,35.40
2019-01-20T13:27:59.547Z,37.57
2019-01-20T13:30:29.383Z,36.40
2019-01-20T13:32:58.224Z,35.93
2019-01-20T13:35:28.612Z,37.80
2019-01-20T13:38:03.559Z,39.70
2019-01-20T13:40:59.214Z,42.17
2019-01-20T13:43:28.279Z,40.80
2019-01-20T13:45:57.270Z,41.07
2019-01-20T13:48:27.336Z,42.53
2019-01-20T13:50:57.215Z,44.77
2019-01-20T13:53:26.299Z,48.33
2019-01-20T13:56:01.133Z,50.70
2019-01-20T13:58:27.992Z,50.00
2019-01-20T14:00:56.903Z,51.87
2019-01-20T14:03:27.908Z,49.80
2019-01-20T14:05:57.123Z,56.03
2019-01-20T14:08:32.152Z,53.93
2019-01-20T14:11:03.180Z,57.43
2019-01-20T14:13:32.593Z,54.63
2019-01-20T14:16:03.217Z,57.43
2019-01-20T14:18:33.246Z,53.37
2019-01-20T14:21:03.206Z,53.37
2019-01-20T14:23:32.355Z,52.63
2019-01-20T14:26:02.330Z,48.10
2019-01-20T14:28:31.167Z,48.73
2019-01-20T14:31:01.211Z,50.07
2019-01-20T14:33:31.200Z,50.70
2019-01-20T14:36:01.461Z,51.93
2019-01-20T14:38:32.917Z,51.17
2019-01-20T14:41:02.242Z,51.40
2019-01-20T14:43:31.318Z,54.07
2019-01-20T14:46:00.349Z,52.80
2019-01-20T14:48:32.172Z,50.93
2019-01-20T14:51:02.279Z,55.27
2019-01-20T14:53:32.251Z,56.37
2019-01-20T14:56:04.102Z,52.87
2019-01-20T14:58:34.076Z,58.00
2019-01-20T15:01:05.816Z,51.87
2019-01-20T15:03:35.685Z,56.30
2019-01-20T15:06:09.326Z,57.10
2019-01-20T15:08:39.230Z,57.93
2019-01-20T15:11:09.054Z,59.67
2019-01-20T15:13:39.654Z,63.57
2019-01-20T15:16:16.339Z,60.43
2019-01-20T15:18:58.445Z,58.47
2019-01-20T15:21:30.065Z,61.93
2019-01-20T15:24:00.933Z,57.67
2019-01-20T15:26:31.562Z,62.87
2019-01-20T15:29:01.301Z,61.27
2019-01-20T15:31:30.966Z,56.87
2019-01-20T15:34:02.697Z,61.57
2019-01-20T15:37:10.441Z,59.17
2019-01-20T15:39:55.357Z,63.07
2019-01-20T15:42:25.362Z,60.73
2019-01-20T15:44:55.467Z,58.97
2019-01-20T15:47:25.133Z,60.80
2019-01-20T15:49:54.498Z,63.67
2019-01-20T15:52:23.747Z,60.83
2019-01-20T15:54:53.111Z,61.93
2019-01-20T15:57:22.317Z,62.07
2019-01-20T15:59:51.625Z,61.07
2019-01-20T16:02:20.866Z,57.97
2019-01-20T16:04:50.109Z,59.33
2019-01-20T16:07:19.351Z,59.07
2019-01-20T16:09:48.591Z,58.63
2019-01-20T16:12:17.835Z,61.83
2019-01-20T16:14:47.119Z,57.23
2019-01-20T16:17:16.398Z,60.20
2019-01-20T16:19:45.667Z,58.10
2019-01-20T16:22:14.854Z,58.23
2019-01-20T16:24:44.042Z,66.00
2019-01-20T16:27:13.551Z,65.80
2019-01-20T16:32:31.446Z,63.13
2019-01-20T16:35:00.754Z,63.70
2019-01-20T16:37:29.918Z,73.17
2019-01-20T16:39:59.175Z,67.97
2019-01-20T16:42:28.458Z,69.37
2019-01-20T16:44:57.791Z,67.70
2019-01-20T16:47:27.037Z,64.70
2019-01-20T16:49:56.323Z,66.83
2019-01-20T16:52:25.533Z,67.30
2019-01-20T16:54:54.845Z,76.10
2019-01-20T16:57:24.150Z,67.30
2019-01-20T16:59:53.394Z,76.33
2019-01-20T17:02:22.626Z,67.80
2019-01-20T17:04:51.994Z,77.37
2019-01-20T17:07:21.291Z,67.53
2019-01-20T17:09:50.594Z,71.47
2019-01-20T17:12:20.039Z,79.80
2019-01-20T17:14:49.507Z,78.10
2019-01-20T17:17:18.879Z,72.17
2019-01-20T17:19:48.304Z,74.73
2019-01-20T17:22:17.483Z,70.57
2019-01-20T17:24:46.851Z,73.93
2019-01-20T17:27:16.154Z,73.17
2019-01-20T17:29:45.387Z,74.07
2019-01-20T17:32:14.656Z,71.33
2019-01-20T17:34:43.750Z,70.00
2019-01-20T17:37:14.032Z,67.27
2019-01-20T17:39:43.533Z,69.40
2019-01-20T17:42:12.701Z,66.93
2019-01-20T17:44:41.987Z,68.37
2019-01-20T17:47:11.248Z,69.10
2019-01-20T17:49:40.522Z,63.93
2019-01-20T17:52:09.795Z,59.80
2019-01-20T17:54:39.172Z,68.57
2019-01-20T17:57:08.571Z,60.20
2019-01-20T17:59:37.709Z,64.07
2019-01-20T18:02:06.970Z,64.30
2019-01-20T18:04:36.331Z,70.23
2019-01-20T18:07:05.614Z,64.67
2019-01-20T18:09:35.652Z,60.83
2019-01-20T18:12:05.014Z,61.83
2019-01-20T18:14:34.082Z,64.67
2019-01-20T18:17:03.174Z,64.97
2019-01-20T18:19:32.170Z,66.80
2019-01-20T18:22:01.255Z,62.77
2019-01-20T18:24:30.238Z,69.50
2019-01-20T18:26:59.566Z,64.87
2019-01-20T18:29:28.671Z,67.80
2019-01-20T18:32:06.059Z,65.43
2019-01-20T18:34:35.286Z,68.93
2019-01-20T18:37:04.288Z,72.40
2019-01-20T18:39:33.302Z,65.20
2019-01-20T18:42:02.389Z,64.13
2019-01-20T18:44:31.411Z,63.40
2019-01-20T18:47:00.623Z,66.20
2019-01-20T18:49:30.600Z,72.60
2019-01-20T18:51:59.836Z,73.03
2019-01-20T18:54:28.786Z,64.83
2019-01-20T18:56:57.898Z,70.83
2019-01-20T18:59:26.876Z,77.30
2019-01-20T19:01:55.890Z,75.27
2019-01-20T19:04:24.994Z,72.07
2019-01-20T19:06:54.002Z,64.97
2019-01-20T19:09:23.098Z,69.40
2019-01-20T19:11:52.048Z,74.40
2019-01-20T19:14:21.050Z,70.83
2019-01-20T19:16:50.108Z,72.23
2019-01-20T19:19:19.099Z,77.43
2019-01-20T19:21:48.182Z,80.67
2019-01-20T19:24:17.246Z,68.90
2019-01-20T19:26:46.339Z,71.90
2019-01-20T19:29:15.262Z,69.97
2019-01-20T19:31:44.424Z,70.30
2019-01-20T19:34:13.465Z,72.90
2019-01-20T19:36:42.454Z,73.43
2019-01-20T19:39:11.703Z,73.33
2019-01-20T19:41:40.649Z,71.20
2019-01-20T19:44:09.485Z,73.90
2019-01-20T19:46:38.445Z,75.60
2019-01-20T19:49:07.517Z,73.63
2019-01-20T19:51:36.586Z,75.33
2019-01-20T19:54:05.702Z,77.20
2019-01-20T19:56:34.834Z,71.40
2019-01-20T19:59:03.877Z,70.73
2019-01-20T20:01:33.024Z,71.80
2019-01-20T20:04:02.074Z,76.40
2019-01-20T20:06:31.151Z,70.17
2019-01-20T20:09:00.266Z,75.90
2019-01-20T20:11:29.326Z,69.73
2019-01-20T20:13:58.332Z,73.97
2019-01-20T20:16:27.423Z,71.17
2019-01-20T20:18:56.410Z,67.77
2019-01-20T20:21:25.350Z,71.10
2019-01-20T20:23:54.327Z,73.03
2019-01-20T20:26:23.466Z,73.07
2019-01-20T20:28:52.487Z,73.43
2019-01-20T20:31:21.566Z,77.77
2019-01-20T20:33:50.491Z,70.97
2019-01-20T20:36:19.383Z,68.83
2019-01-20T20:38:48.367Z,69.27
2019-01-20T20:41:17.491Z,71.40
2019-01-20T20:43:46.530Z,72.37
2019-01-20T20:46:15.626Z,69.43
2019-01-20T20:48:44.886Z,68.20
2019-01-20T20:51:14.038Z,71.70
2019-01-20T20:53:43.061Z,64.17
2019-01-20T20:56:12.121Z,65.13
2019-01-20T20:58:40.934Z,68.20
2019-01-20T21:01:09.978Z,70.00
2019-01-20T21:03:39.647Z,72.77
2019-01-20T21:06:08.710Z,73.50
2019-01-20T21:08:37.774Z,70.17
2019-01-20T21:11:06.786Z,66.87
2019-01-20T21:13:35.731Z,68.87
2019-01-20T21:16:05.175Z,69.30
2019-01-20T21:18:33.998Z,65.57
2019-01-20T21:21:03.038Z,62.50
2019-01-20T21:23:31.994Z,62.47
2019-01-20T21:26:00.872Z,61.73
2019-01-20T21:28:29.810Z,64.73
2019-01-20T21:30:58.661Z,62.67
2019-01-20T21:33:27.739Z,66.10
2019-01-20T21:35:56.638Z,69.17
2019-01-20T21:38:25.619Z,67.73
2019-01-20T21:40:54.550Z,70.00
2019-01-20T21:43:24.562Z,62.70
2019-01-20T21:45:53.514Z,65.00
2019-01-20T21:48:22.348Z,70.13
2019-01-20T21:50:51.173Z,67.83
2019-01-20T21:53:20.190Z,71.80
2019-01-20T21:56:04.745Z,65.97
2019-01-20T22:02:02.427Z,61.73
2019-01-20T22:04:31.274Z,72.97
2019-01-20T22:07:00.397Z,71.53
2019-01-20T22:09:29.430Z,68.00
2019-01-20T22:11:58.328Z,67.87
2019-01-20T22:14:27.295Z,65.90
2019-01-20T22:16:56.276Z,71.03
2019-01-20T22:19:25.199Z,66.07
2019-01-20T22:21:54.164Z,68.47
2019-01-20T22:24:23.088Z,61.90
2019-01-20T22:26:52.041Z,70.33
2019-01-20T22:29:21.039Z,72.97
2019-01-20T22:31:50.030Z,68.47
2019-01-20T22:34:18.941Z,62.70
2019-01-20T22:36:47.808Z,69.73
2019-01-20T22:39:16.779Z,76.93
2019-01-20T22:41:45.734Z,69.17
2019-01-20T22:44:14.683Z,64.83
2019-01-20T22:46:43.540Z,64.77
2019-01-20T22:49:12.546Z,65.60
2019-01-20T22:51:41.471Z,63.10
2019-01-20T22:54:10.359Z,63.77
2019-01-20T22:56:40.459Z,61.63
2019-01-20T22:59:09.528Z,61.57
2019-01-20T23:01:38.690Z,66.93
2019-01-20T23:04:07.744Z,69.83
2019-01-20T23:06:36.716Z,62.93
2019-01-20T23:09:07.969Z,63.37
2019-01-20T23:11:37.062Z,68.83
2019-01-20T23:14:06.262Z,66.87
2019-01-20T23:16:35.283Z,69.40
2019-01-20T23:19:05.463Z,68.83
2019-01-20T23:21:34.397Z,63.27
2019-01-20T23:24:03.375Z,66.67
2019-01-20T23:26:32.530Z,64.83
2019-01-20T23:29:01.475Z,64.20
2019-01-20T23:31:30.438Z,66.73
2019-01-20T23:33:59.420Z,62.10
2019-01-20T23:36:28.347Z,67.23
2019-01-20T23:38:57.367Z,69.63
2019-01-20T23:41:26.234Z,71.33
2019-01-20T23:43:55.224Z,77.37
2019-01-20T23:46:24.256Z,71.63
2019-01-20T23:48:53.268Z,69.87
2019-01-20T23:51:22.185Z,67.47
2019-01-20T23:53:51.123Z,69.53
2019-01-20T23:56:20.150Z,73.83
2019-01-20T23:58:49.071Z,65.23
